Time;durP1;ratioP1;P1;durP2;ratioP2;P2;SDS_P1;SDS_P2;PMS_P1;PMS_P2;Temp;Humidity;BMP_temperature;BMP_pressure;BME280_temperature;BME280_humidity;BME280_pressure;Samples;Min_cycle;Max_cycle;Signal;HPM_P1;HPM_P2
2023/08/28 00:00:40;;;;;;;6.70;3.23;;;12.20;1.00;;;;;;6107251;23;20174;-92
2023/08/28 00:03:05;;;;;;;4.63;3.17;;;12.00;1.00;;;;;;6130150;23;20234;-92
2023/08/28 00:05:32;;;;;;;4.33;3.57;;;13.10;1.00;;;;;;6131193;23;20189;-92
2023/08/28 00:07:58;;;;;;;4.80;3.80;;;12.50;1.00;;;;;;6130054;23;20257;-92
2023/08/28 00:10:25;;;;;;;5.60;4.03;;;12.70;1.00;;;;;;6129610;23;20272;-93
2023/08/28 00:12:51;;;;;;;6.20;3.60;;;12.20;1.00;;;;;;6129002;23;20509;-91
2023/08/28 00:15:17;;;;;;;5.57;4.20;;;11.90;1.00;;;;;;6130687;23;20190;-91
2023/08/28 00:17:44;;;;;;;4.10;3.57;;;12.20;1.00;;;;;;6133475;23;20162;-92
2023/08/28 00:20:10;;;;;;;5.83;4.37;;;11.80;1.00;;;;;;6133214;23;20634;-90
2023/08/28 00:22:36;;;;;;;8.77;3.97;;;11.80;1.00;;;;;;6131642;23;20163;-92
2023/08/28 00:25:03;;;;;;;7.53;4.20;;;13.60;1.00;;;;;;6106936;23;20770;-92
2023/08/28 00:27:29;;;;;;;4.77;3.80;;;11.70;1.00;;;;;;6135233;23;20181;-92
2023/08/28 00:29:56;;;;;;;6.63;3.80;;;11.90;1.10;;;;;;6136740;23;20470;-92
2023/08/28 00:32:22;;;;;;;5.10;3.77;;;11.70;2.60;;;;;;6135813;23;20624;-93
2023/08/28 00:34:49;;;;;;;4.23;3.47;;;11.70;11.20;;;;;;6135482;23;20205;-93
2023/08/28 00:37:16;;;;;;;6.03;3.30;;;11.60;10.70;;;;;;6135159;23;20157;-90
2023/08/28 00:39:43;;;;;;;4.27;3.10;;;11.60;13.70;;;;;;6110754;23;20158;-91
2023/08/28 00:42:08;;;;;;;5.70;3.40;;;11.90;15.60;;;;;;6136067;23;20162;-92
2023/08/28 00:44:34;;;;;;;3.97;3.00;;;11.60;16.50;;;;;;6136176;23;20273;-92
2023/08/28 00:47:01;;;;;;;3.97;3.20;;;13.60;18.60;;;;;;6135931;23;20496;-91
2023/08/28 00:49:27;;;;;;;4.57;3.27;;;11.60;16.60;;;;;;6135786;23;20162;-91
2023/08/28 00:51:53;;;;;;;4.33;3.03;;;12.90;18.20;;;;;;6110086;23;20205;-91
2023/08/28 00:54:19;;;;;;;4.80;3.07;;;11.70;17.30;;;;;;6135508;23;20174;-92
2023/08/28 00:56:45;;;;;;;5.70;3.10;;;13.30;18.30;;;;;;6135425;23;20158;-94
2023/08/28 00:59:15;;;;;;;4.10;3.10;;;11.70;16.80;;;;;;6137055;23;20158;-91
2023/08/28 01:01:41;;;;;;;4.63;2.73;;;12.50;17.80;;;;;;6135387;23;20222;-90
2023/08/28 01:04:07;;;;;;;5.23;3.03;;;11.70;18.10;;;;;;6135444;23;20161;-91
2023/08/28 01:06:43;;;;;;;3.47;2.87;;;10.50;18.50;;;;;;6135927;23;20168;-91
2023/08/28 01:09:37;;;;;;;5.77;2.93;;;11.50;18.40;;;;;;6135609;23;20244;-91
2023/08/28 01:12:16;;;;;;;4.83;2.80;;;11.50;18.70;;;;;;6116010;23;20197;-91
2023/08/28 01:15:05;;;;;;;3.73;2.27;;;11.50;19.10;;;;;;6135410;23;20177;-90
2023/08/28 01:17:31;;;;;;;7.73;2.33;;;11.50;19.20;;;;;;6133656;23;20169;-91
2023/08/28 01:19:59;;;;;;;3.73;2.50;;;11.50;19.70;;;;;;6133899;23;20165;-92
2023/08/28 01:22:47;;;;;;;3.00;2.60;;;11.40;19.40;;;;;;6133785;23;20161;-89
2023/08/28 01:25:14;;;;;;;4.70;2.53;;;11.40;18.80;;;;;;6132174;23;20186;-89
2023/08/28 01:27:41;;;;;;;3.33;2.30;;;11.40;18.90;;;;;;6105208;23;20169;-92
2023/08/28 01:30:11;;;;;;;4.43;2.20;;;11.40;18.80;;;;;;6104994;23;20193;-92
2023/08/28 01:32:38;;;;;;;2.30;2.10;;;11.40;19.00;;;;;;6105639;23;20161;-92
2023/08/28 01:35:12;;;;;;;3.00;1.97;;;11.40;19.10;;;;;;6105168;23;20182;-92
2023/08/28 01:38:08;;;;;;;2.30;2.10;;;11.30;18.20;;;;;;6104707;23;20498;-92
2023/08/28 01:40:48;;;;;;;3.77;2.50;;;11.30;17.80;;;;;;6105191;23;20507;-93
2023/08/28 01:43:19;;;;;;;2.93;2.20;;;11.30;17.80;;;;;;6104931;23;20154;-92
2023/08/28 01:45:44;;;;;;;2.87;2.23;;;11.30;19.20;;;;;;6104979;23;20189;-93
2023/08/28 01:48:10;;;;;;;4.13;2.50;;;11.30;21.00;;;;;;6104677;23;20166;-92
2023/08/28 01:50:36;;;;;;;5.23;1.90;;;11.20;22.00;;;;;;6104643;23;20273;-93
2023/08/28 01:53:02;;;;;;;3.80;2.10;;;11.80;23.00;;;;;;6104570;23;20190;-92
2023/08/28 01:55:45;;;;;;;3.33;2.40;;;11.20;22.80;;;;;;6104149;23;20500;-91
2023/08/28 01:58:12;;;;;;;4.70;2.40;;;11.20;22.90;;;;;;6104638;23;20193;-91
2023/08/28 02:00:37;;;;;;;2.17;1.97;;;11.20;23.10;;;;;;6104507;23;20165;-91
2023/08/28 02:03:05;;;;;;;4.50;2.30;;;11.60;24.00;;;;;;6103505;23;20216;-90
2023/08/28 02:05:30;;;;;;;3.70;2.23;;;11.40;24.90;;;;;;6105198;23;20178;-90
2023/08/28 02:07:56;;;;;;;2.40;2.10;;;11.20;25.10;;;;;;6104968;23;20172;-91
2023/08/28 02:10:21;;;;;;;4.70;2.47;;;11.30;26.30;;;;;;6105155;23;20194;-91
2023/08/28 02:12:47;;;;;;;2.43;2.20;;;11.10;26.10;;;;;;6105405;23;20189;-91
2023/08/28 02:15:13;;;;;;;3.97;2.23;;;11.10;26.40;;;;;;6105137;23;20178;-92
2023/08/28 02:17:38;;;;;;;3.67;2.23;;;11.00;25.70;;;;;;6104926;23;20219;-92
2023/08/28 02:20:04;;;;;;;2.40;2.13;;;11.10;25.60;;;;;;6105585;23;20536;-93
2023/08/28 02:22:30;;;;;;;4.00;2.20;;;11.00;26.40;;;;;;6104739;23;20158;-92
2023/08/28 02:24:58;;;;;;;2.60;2.40;;;11.40;27.80;;;;;;6104731;23;20191;-92
2023/08/28 02:27:24;;;;;;;2.20;2.00;;;11.00;27.90;;;;;;6133726;23;20230;-92
2023/08/28 02:29:50;;;;;;;1.83;1.70;;;11.00;28.70;;;;;;6133859;23;20157;-93
2023/08/28 02:32:16;;;;;;;1.90;1.80;;;10.90;29.30;;;;;;6134051;23;20247;-91
2023/08/28 02:34:43;;;;;;;2.33;2.10;;;11.00;29.60;;;;;;6133888;23;20185;-92
2023/08/28 02:37:08;;;;;;;2.13;1.93;;;10.90;29.70;;;;;;6134320;23;20158;-92
2023/08/28 02:39:34;;;;;;;2.07;1.93;;;11.10;30.40;;;;;;6134689;23;20184;-92
2023/08/28 02:42:00;;;;;;;4.13;2.17;;;10.80;30.80;;;;;;6134158;23;20246;-91
2023/08/28 02:44:26;;;;;;;3.53;2.10;;;10.80;31.30;;;;;;6147406;23;20170;-91
2023/08/28 02:46:52;;;;;;;3.63;2.07;;;11.40;32.10;;;;;;6169304;23;20138;-92
2023/08/28 02:49:18;;;;;;;4.60;1.93;;;10.70;31.60;;;;;;6135664;23;20215;-92
2023/08/28 02:51:44;;;;;;;4.03;2.37;;;10.80;33.00;;;;;;6136203;23;20193;-93
2023/08/28 02:54:09;;;;;;;2.10;2.00;;;10.90;34.50;;;;;;6136162;23;20594;-91
2023/08/28 02:56:38;;;;;;;2.43;2.10;;;11.00;35.60;;;;;;6135895;23;20169;-91
2023/08/28 02:59:04;;;;;;;5.67;2.20;;;10.70;37.00;;;;;;6135741;23;20166;-92
2023/08/28 03:01:36;;;;;;;2.00;1.90;;;13.10;39.40;;;;;;6136512;23;20165;-93
2023/08/28 03:04:05;;;;;;;4.60;2.03;;;11.40;38.20;;;;;;6136532;23;20157;-92
2023/08/28 03:06:38;;;;;;;2.83;2.23;;;10.60;37.90;;;;;;6137510;23;20165;-92
2023/08/28 03:09:07;;;;;;;2.10;1.90;;;10.60;38.10;;;;;;6136516;23;20165;-92
2023/08/28 03:11:36;;;;;;;3.93;2.20;;;11.00;39.20;;;;;;6135461;23;20228;-92
2023/08/28 03:14:02;;;;;;;2.30;2.10;;;10.90;39.70;;;;;;6136040;23;20174;-91
2023/08/28 03:16:28;;;;;;;2.30;2.07;;;10.60;40.00;;;;;;6136271;23;20161;-92
2023/08/28 03:18:54;;;;;;;4.20;2.40;;;10.30;40.90;;;;;;6137549;23;20164;-92
2023/08/28 03:21:20;;;;;;;3.03;2.10;;;10.60;42.20;;;;;;6138252;23;20188;-92
2023/08/28 03:23:46;;;;;;;3.77;2.20;;;10.80;43.20;;;;;;6135801;23;20166;-92
2023/08/28 03:26:11;;;;;;;2.33;2.10;;;10.60;43.10;;;;;;6135648;23;20202;-91
2023/08/28 03:28:37;;;;;;;3.07;2.07;;;10.60;42.90;;;;;;6135859;23;20594;-93
2023/08/28 03:31:03;;;;;;;2.57;2.30;;;10.60;43.40;;;;;;6135002;23;20537;-91
2023/08/28 03:33:29;;;;;;;2.27;2.03;;;12.90;44.90;;;;;;6135167;23;20245;-91
2023/08/28 03:35:54;;;;;;;2.60;2.10;;;11.20;43.70;;;;;;6135619;23;20180;-92
2023/08/28 03:38:20;;;;;;;2.80;2.27;;;11.00;44.60;;;;;;6134439;23;20207;-88
2023/08/28 03:40:47;;;;;;;3.17;2.27;;;10.40;46.90;;;;;;6134476;23;20248;-94
2023/08/28 03:43:13;;;;;;;2.37;2.17;;;12.30;51.40;;;;;;6135328;23;20196;-89
2023/08/28 03:45:39;;;;;;;2.93;2.13;;;11.10;52.10;;;;;;6135352;23;20277;-91
2023/08/28 03:48:06;;;;;;;3.17;2.20;;;10.80;53.10;;;;;;6135410;23;20180;-91
2023/08/28 03:50:32;;;;;;;3.37;2.40;;;11.40;53.50;;;;;;6134314;23;20231;-91
2023/08/28 03:52:59;;;;;;;4.50;2.40;;;10.40;53.60;;;;;;6134552;23;20169;-87
2023/08/28 03:55:27;;;;;;;2.77;2.20;;;11.00;53.70;;;;;;6133411;23;20180;-89
2023/08/28 03:57:53;;;;;;;2.30;2.10;;;11.20;55.20;;;;;;6134493;23;20158;-91
2023/08/28 04:00:18;;;;;;;4.17;2.80;;;10.60;54.80;;;;;;6134249;23;20175;-92
2023/08/28 04:02:46;;;;;;;4.63;2.60;;;10.30;54.50;;;;;;6134447;23;20606;-89
2023/08/28 04:05:12;;;;;;;2.47;2.27;;;9.60;54.60;;;;;;6133988;23;20181;-90
2023/08/28 04:07:40;;;;;;;2.80;2.60;;;10.50;58.30;;;;;;6133701;23;20166;-90
2023/08/28 04:10:06;;;;;;;3.50;2.43;;;12.70;60.60;;;;;;6134490;23;20164;-92
2023/08/28 04:12:32;;;;;;;4.53;2.60;;;10.20;61.70;;;;;;6133358;23;20620;-89
2023/08/28 04:14:58;;;;;;;3.97;2.50;;;11.00;64.80;;;;;;6135042;23;20185;-86
2023/08/28 04:17:24;;;;;;;5.20;2.20;;;10.80;64.20;;;;;;6133214;23;20604;-89
2023/08/28 04:19:51;;;;;;;2.33;2.13;;;11.40;64.70;;;;;;6133713;23;20165;-87
2023/08/28 04:22:18;;;;;;;2.23;2.03;;;10.40;64.80;;;;;;6133756;23;20169;-83
2023/08/28 04:24:45;;;;;;;2.23;2.03;;;11.20;65.70;;;;;;6138549;23;20181;-92
2023/08/28 04:27:11;;;;;;;2.30;2.10;;;10.90;67.40;;;;;;6143163;23;20235;-92
2023/08/28 04:29:37;;;;;;;2.47;2.17;;;12.00;70.50;;;;;;6136865;23;20501;-91
2023/08/28 04:32:03;;;;;;;3.53;2.43;;;10.30;70.70;;;;;;6110378;23;20637;-94
2023/08/28 04:34:29;;;;;;;2.83;2.37;;;10.30;72.20;;;;;;6135440;23;20174;-93
2023/08/28 04:36:54;;;;;;;4.10;2.37;;;10.30;73.90;;;;;;6136308;23;20171;-93
2023/08/28 04:39:22;;;;;;;3.60;2.23;;;10.60;78.90;;;;;;6136527;23;20594;-91
2023/08/28 04:41:52;;;;;;;2.77;2.47;;;10.40;78.30;;;;;;6136354;23;20171;-93
2023/08/28 04:44:21;;;;;;;4.90;2.60;;;10.40;73.80;;;;;;6135698;23;20187;-91
2023/08/28 04:46:47;;;;;;;2.80;2.53;;;10.40;73.30;;;;;;6136243;23;20228;-92
2023/08/28 04:49:13;;;;;;;3.00;2.70;;;10.40;72.60;;;;;;6134051;23;20165;-92
2023/08/28 04:51:40;;;;;;;2.43;2.23;;;10.50;71.30;;;;;;6135161;23;20525;-92
2023/08/28 04:54:06;;;;;;;2.57;2.37;;;10.70;73.50;;;;;;6135457;23;20160;-92
2023/08/28 04:56:31;;;;;;;3.33;2.27;;;10.20;72.10;;;;;;6135326;23;20179;-90
2023/08/28 04:58:57;;;;;;;3.03;2.17;;;12.50;74.20;;;;;;6135134;23;20165;-93
2023/08/28 05:01:24;;;;;;;2.33;2.10;;;10.50;72.00;;;;;;6134999;23;20188;-93
2023/08/28 05:03:49;;;;;;;3.30;2.20;;;10.10;72.10;;;;;;6135553;23;20175;-93
2023/08/28 05:06:16;;;;;;;2.40;2.20;;;10.20;72.00;;;;;;6110460;23;20189;-93
2023/08/28 05:08:42;;;;;;;2.60;2.40;;;10.20;70.40;;;;;;6134412;23;20169;-90
2023/08/28 05:11:08;;;;;;;2.17;1.97;;;10.10;72.50;;;;;;6179439;23;20197;-93
2023/08/28 05:13:34;;;;;;;2.50;2.20;;;12.00;76.10;;;;;;6137102;23;20251;-93
2023/08/28 05:15:59;;;;;;;2.67;2.47;;;10.10;76.40;;;;;;6136629;23;20191;-93
2023/08/28 05:18:26;;;;;;;2.50;2.10;;;10.70;79.60;;;;;;6138138;23;20224;-91
2023/08/28 05:20:51;;;;;;;5.60;2.50;;;12.60;82.90;;;;;;6162904;23;20176;-90
2023/08/28 05:23:23;;;;;;;2.93;2.20;;;10.80;82.20;;;;;;6162126;23;20156;-89
2023/08/28 05:25:48;;;;;;;3.37;2.50;;;10.60;81.30;;;;;;6135918;23;20624;-90
2023/08/28 05:28:15;;;;;;;2.40;2.17;;;10.20;81.40;;;;;;6163068;23;20168;-90
2023/08/28 05:30:40;;;;;;;2.40;2.20;;;10.30;82.20;;;;;;6136293;23;20658;-90
2023/08/28 05:33:06;;;;;;;2.83;2.30;;;10.60;84.00;;;;;;6136825;23;20165;-90
2023/08/28 05:35:31;;;;;;;2.37;2.07;;;10.40;85.50;;;;;;6137413;23;20181;-91
2023/08/28 05:37:57;;;;;;;3.23;2.23;;;10.80;87.10;;;;;;6139227;23;20161;-91
2023/08/28 05:40:22;;;;;;;3.13;2.03;;;10.60;90.60;;;;;;6137338;23;20168;-90
2023/08/28 05:42:48;;;;;;;3.43;2.33;;;10.50;92.80;;;;;;6135865;23;20161;-90
2023/08/28 05:45:14;;;;;;;8.97;2.80;;;10.60;96.40;;;;;;6136176;23;20650;-91
2023/08/28 05:47:41;;;;;;;3.67;2.60;;;10.70;99.90;;;;;;6135769;23;20172;-91
2023/08/28 05:50:07;;;;;;;4.03;3.00;;;10.80;99.90;;;;;;6161958;23;20164;-89
2023/08/28 05:52:33;;;;;;;6.57;3.27;;;10.90;99.90;;;;;;6135590;23;20187;-90
2023/08/28 05:54:59;;;;;;;3.53;2.67;;;12.30;99.90;;;;;;6135815;23;20741;-92
2023/08/28 05:57:25;;;;;;;4.10;2.43;;;11.20;99.90;;;;;;6136465;23;20192;-91
2023/08/28 05:59:52;;;;;;;3.37;2.90;;;11.50;99.90;;;;;;6136593;23;20164;-92
2023/08/28 06:02:17;;;;;;;4.40;3.20;;;11.60;99.90;;;;;;6135918;23;20247;-90
2023/08/28 06:04:47;;;;;;;4.03;3.17;;;11.20;99.90;;;;;;6135778;23;20196;-91
2023/08/28 06:07:14;;;;;;;3.20;2.83;;;11.90;99.90;;;;;;6135827;23;20162;-91
2023/08/28 06:09:41;;;;;;;5.17;3.10;;;11.60;99.90;;;;;;6135645;23;20184;-92
2023/08/28 06:12:09;;;;;;;2.97;2.67;;;12.00;99.90;;;;;;6161430;23;20185;-92
2023/08/28 06:14:35;;;;;;;5.47;3.10;;;11.80;99.90;;;;;;6135261;23;20185;-91
2023/08/28 06:17:01;;;;;;;3.43;2.90;;;12.20;99.90;;;;;;6135645;23;20243;-92
2023/08/28 06:19:27;;;;;;;6.57;3.03;;;12.00;99.90;;;;;;6133841;23;20169;-90
2023/08/28 06:21:53;;;;;;;3.87;3.10;;;12.00;99.90;;;;;;6134616;23;20478;-91
2023/08/28 06:24:20;;;;;;;4.53;3.50;;;12.10;99.90;;;;;;6135543;23;20177;-91
2023/08/28 06:26:45;;;;;;;5.73;3.30;;;12.70;99.90;;;;;;6135445;23;20184;-91
2023/08/28 06:29:12;;;;;;;5.60;3.97;;;12.80;99.90;;;;;;6161301;23;20160;-91
2023/08/28 06:31:37;;;;;;;7.13;3.80;;;13.80;99.90;;;;;;6111894;23;20199;-90
2023/08/28 06:34:04;;;;;;;5.60;4.57;;;13.30;99.90;;;;;;6134517;23;20161;-90
2023/08/28 06:36:30;;;;;;;6.93;4.43;;;12.90;99.90;;;;;;6135136;23;20161;-90
2023/08/28 06:38:56;;;;;;;6.77;4.73;;;14.30;99.90;;;;;;6134800;23;20181;-90
2023/08/28 06:41:22;;;;;;;5.43;4.20;;;13.80;99.90;;;;;;6134885;23;20165;-91
2023/08/28 06:43:48;;;;;;;6.23;5.03;;;13.40;99.90;;;;;;6160157;23;20165;-89
2023/08/28 06:46:14;;;;;;;6.77;4.23;;;13.50;99.90;;;;;;6134168;23;20185;-90
2023/08/28 06:48:43;;;;;;;5.53;4.13;;;13.70;99.90;;;;;;6136800;23;20172;-91
2023/08/28 06:51:12;;;;;;;6.97;4.27;;;13.80;99.90;;;;;;6170166;23;20252;-91
2023/08/28 06:53:38;;;;;;;8.00;4.30;;;13.90;99.90;;;;;;6135473;23;20165;-91
2023/08/28 06:56:04;;;;;;;4.83;3.90;;;14.00;99.90;;;;;;6136833;23;20174;-92
2023/08/28 06:58:30;;;;;;;6.53;3.97;;;14.20;99.90;;;;;;6162635;23;20158;-90
2023/08/28 07:00:57;;;;;;;6.23;3.60;;;14.30;99.90;;;;;;6136981;23;20670;-92
2023/08/28 07:03:22;;;;;;;6.93;4.33;;;14.50;99.90;;;;;;6138489;23;20212;-92
2023/08/28 07:05:48;;;;;;;7.43;3.80;;;14.30;99.90;;;;;;6136501;23;20181;-91
2023/08/28 07:08:13;;;;;;;6.00;4.00;;;14.60;99.90;;;;;;6162747;23;20165;-92
2023/08/28 07:10:39;;;;;;;5.57;3.73;;;14.60;99.90;;;;;;6136292;23;20186;-90
2023/08/28 07:13:05;;;;;;;10.83;3.83;;;14.80;99.90;;;;;;6136445;23;20161;-92
2023/08/28 07:15:30;;;;;;;6.03;3.87;;;14.80;99.90;;;;;;6135475;23;20182;-92
2023/08/28 07:17:59;;;;;;;9.43;3.70;;;15.10;99.90;;;;;;6136095;23;20157;-91
2023/08/28 07:20:25;;;;;;;5.03;3.47;;;15.30;99.90;;;;;;6162089;23;20173;-92
2023/08/28 07:22:54;;;;;;;6.40;3.90;;;15.30;99.90;;;;;;6166833;23;20161;-91
2023/08/28 07:25:22;;;;;;;5.53;3.67;;;15.40;99.40;;;;;;6173881;23;20192;-91
2023/08/28 07:27:48;;;;;;;6.20;3.80;;;15.50;99.40;;;;;;6135512;23;20181;-92
2023/08/28 07:30:14;;;;;;;7.43;4.07;;;16.10;97.00;;;;;;6112314;23;20600;-92
2023/08/28 07:32:39;;;;;;;8.87;4.00;;;15.70;93.50;;;;;;6136393;23;20231;-91
2023/08/28 07:35:05;;;;;;;7.20;4.07;;;15.80;91.60;;;;;;6134657;23;20242;-92
2023/08/28 07:37:33;;;;;;;6.47;3.93;;;15.90;90.40;;;;;;6135659;23;20650;-92
2023/08/28 07:39:58;;;;;;;8.83;3.90;;;16.00;89.30;;;;;;6135340;23;20158;-92
2023/08/28 07:42:24;;;;;;;5.37;4.03;;;16.10;76.70;;;;;;6136059;23;20162;-91
2023/08/28 07:44:50;;;;;;;6.20;3.70;;;16.20;61.90;;;;;;6112138;23;20185;-91
2023/08/28 07:47:16;;;;;;;9.20;3.90;;;16.20;57.40;;;;;;6136412;23;20630;-91
2023/08/28 07:49:42;;;;;;;7.20;3.57;;;16.10;59.50;;;;;;6162164;23;20157;-91
2023/08/28 07:52:08;;;;;;;8.13;4.00;;;16.40;60.00;;;;;;6135494;23;20580;-91
2023/08/28 07:54:33;;;;;;;6.60;3.50;;;16.40;61.10;;;;;;6141155;23;20174;-90
2023/08/28 07:57:00;;;;;;;7.40;3.60;;;16.50;59.70;;;;;;6137343;23;20573;-91
2023/08/28 07:59:26;;;;;;;7.37;4.10;;;16.60;58.90;;;;;;6138426;23;20548;-90
2023/08/28 08:01:51;;;;;;;8.00;3.93;;;16.70;61.50;;;;;;6135340;23;20165;-91
2023/08/28 08:04:17;;;;;;;9.53;4.17;;;16.60;50.00;;;;;;6133915;23;20204;-92
2023/08/28 08:06:42;;;;;;;8.97;4.40;;;16.80;47.90;;;;;;6161255;23;20166;-90
2023/08/28 08:12:42;;;;;;;6.73;4.03;;;16.90;44.90;;;;;;6092560;23;20165;-90
2023/08/28 08:15:08;;;;;;;5.23;3.60;;;17.10;48.70;;;;;;6161144;23;20180;-91
2023/08/28 08:17:36;;;;;;;6.20;3.73;;;17.00;44.20;;;;;;6160690;23;20185;-91
2023/08/28 08:20:09;;;;;;;6.00;3.87;;;17.10;46.00;;;;;;6160666;23;20161;-91
2023/08/28 08:22:35;;;;;;;8.77;3.47;;;17.20;53.50;;;;;;6111597;23;20268;-90
2023/08/28 08:25:01;;;;;;;11.40;4.13;;;17.30;53.60;;;;;;6160904;23;20181;-91
2023/08/28 08:27:27;;;;;;;7.37;3.77;;;17.50;47.10;;;;;;6109863;23;20236;-91
2023/08/28 08:29:53;;;;;;;8.77;3.80;;;17.50;40.50;;;;;;6161039;23;20181;-91
2023/08/28 08:32:18;;;;;;;8.90;3.63;;;17.60;34.30;;;;;;6110131;23;20539;-92
2023/08/28 08:34:45;;;;;;;6.90;3.47;;;17.60;28.90;;;;;;6110135;23;20181;-90
2023/08/28 08:37:10;;;;;;;9.23;4.37;;;17.70;32.50;;;;;;6133940;23;20158;-91
2023/08/28 08:39:36;;;;;;;8.53;3.73;;;17.80;33.90;;;;;;6133512;23;20629;-90
2023/08/28 08:42:01;;;;;;;11.40;4.27;;;17.90;40.00;;;;;;6134056;23;20157;-91
2023/08/28 08:44:27;;;;;;;8.40;3.73;;;18.00;34.50;;;;;;6133393;23;20662;-90
2023/08/28 08:46:53;;;;;;;6.37;4.17;;;18.10;29.30;;;;;;6133015;23;20166;-92
2023/08/28 08:49:25;;;;;;;7.13;3.90;;;18.10;26.80;;;;;;6133948;23;20166;-90
2023/08/28 08:51:57;;;;;;;8.17;4.50;;;18.20;22.60;;;;;;6134073;23;20255;-91
2023/08/28 08:54:26;;;;;;;9.93;5.37;;;18.30;16.10;;;;;;6134346;23;20461;-90
2023/08/28 08:57:02;;;;;;;10.17;4.67;;;18.30;7.30;;;;;;6134003;23;20205;-90
2023/08/28 08:59:28;;;;;;;6.63;4.50;;;18.40;11.70;;;;;;6133950;23;20504;-92
2023/08/28 09:01:54;;;;;;;9.40;4.70;;;18.40;14.50;;;;;;6160054;23;20158;-92
2023/08/28 09:04:21;;;;;;;7.40;4.47;;;18.50;10.40;;;;;;6159949;23;20487;-90
2023/08/28 09:06:48;;;;;;;7.80;4.57;;;18.60;7.30;;;;;;6133579;23;20619;-91
2023/08/28 09:09:15;;;;;;;8.07;4.03;;;18.70;6.50;;;;;;6160064;23;20626;-90
2023/08/28 09:11:45;;;;;;;12.37;4.53;;;18.80;4.70;;;;;;6110033;23;20189;-91
2023/08/28 09:14:11;;;;;;;6.97;3.73;;;18.90;4.70;;;;;;6110272;23;20241;-91
2023/08/28 09:16:36;;;;;;;5.80;3.80;;;19.10;3.80;;;;;;6134353;23;20158;-91
2023/08/28 09:19:02;;;;;;;7.57;4.33;;;19.20;1.00;;;;;;6133965;23;20246;-91
2023/08/28 09:21:35;;;;;;;7.60;4.30;;;19.20;1.00;;;;;;6109743;23;20505;-91
2023/08/28 09:24:01;;;;;;;6.00;3.77;;;19.20;1.00;;;;;;6132837;23;20610;-90
2023/08/28 09:26:26;;;;;;;7.13;3.83;;;19.20;1.00;;;;;;6133298;23;20177;-91
2023/08/28 09:28:59;;;;;;;7.47;3.70;;;19.20;1.00;;;;;;6158925;23;20154;-91
2023/08/28 09:31:33;;;;;;;9.40;4.23;;;19.30;1.00;;;;;;6150058;23;20182;-88
2023/08/28 09:34:00;;;;;;;7.93;3.73;;;19.30;1.00;;;;;;6160619;23;20212;-89
2023/08/28 09:36:28;;;;;;;6.00;4.13;;;19.30;1.00;;;;;;6109736;23;20235;-91
2023/08/28 09:38:59;;;;;;;8.53;3.90;;;19.40;1.00;;;;;;6158951;23;20200;-91
2023/08/28 09:41:39;;;;;;;6.20;3.73;;;19.40;1.00;;;;;;6109338;23;20192;-91
2023/08/28 09:44:05;;;;;;;6.40;3.83;;;19.50;1.00;;;;;;6158032;23;20511;-89
2023/08/28 09:46:32;;;;;;;6.57;3.23;;;19.60;1.00;;;;;;6159970;23;20217;-90
2023/08/28 09:49:00;;;;;;;5.50;3.40;;;19.70;1.00;;;;;;6133497;23;20161;-92
2023/08/28 09:51:59;;;;;;;5.07;3.47;;;19.90;1.00;;;;;;6134129;23;20265;-92
2023/08/28 09:54:25;;;;;;;9.10;4.30;;;20.00;1.00;;;;;;6134117;23;20173;-91
2023/08/28 09:56:52;;;;;;;7.90;3.80;;;20.10;1.00;;;;;;6084676;23;20169;-92
2023/08/28 09:59:19;;;;;;;8.77;4.33;;;20.20;1.00;;;;;;6133006;23;20208;-90
2023/08/28 10:01:46;;;;;;;6.47;4.17;;;20.20;1.00;;;;;;6134173;23;20226;-91
2023/08/28 10:04:14;;;;;;;9.07;5.27;;;20.10;1.00;;;;;;6134340;23;20497;-91
2023/08/28 10:06:49;;;;;;;9.23;5.87;;;20.00;1.00;;;;;;6133828;23;20252;-89
2023/08/28 10:09:19;;;;;;;11.00;4.70;;;19.90;1.00;;;;;;6133365;23;20172;-91
2023/08/28 10:11:45;;;;;;;6.23;4.20;;;19.80;1.00;;;;;;6159567;23;20181;-90
2023/08/28 10:14:12;;;;;;;7.40;5.23;;;19.70;1.00;;;;;;6159638;23;20649;-92
2023/08/28 10:16:50;;;;;;;7.67;5.17;;;19.70;1.00;;;;;;6134019;23;20595;-90
2023/08/28 10:19:26;;;;;;;10.03;4.43;;;19.70;1.00;;;;;;6134425;23;20300;-92
2023/08/28 10:21:54;;;;;;;5.37;3.87;;;19.80;1.00;;;;;;6135434;23;20158;-90
2023/08/28 10:24:20;;;;;;;4.53;3.03;;;20.00;1.00;;;;;;6133883;23;20211;-92
2023/08/28 10:26:47;;;;;;;5.80;3.53;;;20.10;1.00;;;;;;6134070;23;20209;-90
2023/08/28 10:29:16;;;;;;;5.50;3.80;;;20.20;1.00;;;;;;6133952;23;20166;-90
2023/08/28 10:31:42;;;;;;;5.47;3.30;;;20.20;1.00;;;;;;6133602;23;20186;-93
2023/08/28 10:34:09;;;;;;;7.13;3.10;;;20.10;1.00;;;;;;6160051;23;20157;-92
2023/08/28 10:36:36;;;;;;;3.53;2.57;;;20.10;1.00;;;;;;6134545;23;20184;-93
2023/08/28 10:39:03;;;;;;;7.07;2.83;;;20.10;1.00;;;;;;6133283;23;20245;-90
2023/08/28 10:41:30;;;;;;;5.63;3.17;;;20.10;1.00;;;;;;6133761;23;20170;-91
2023/08/28 10:43:58;;;;;;;5.67;3.00;;;20.10;1.00;;;;;;6133596;23;20158;-92
2023/08/28 10:46:27;;;;;;;4.30;2.43;;;20.30;1.00;;;;;;6133311;23;20166;-91
2023/08/28 10:49:03;;;;;;;3.73;2.47;;;20.30;1.00;;;;;;6132865;23;20162;-91
2023/08/28 10:51:38;;;;;;;2.40;2.10;;;20.20;1.00;;;;;;6133577;23;20185;-90
2023/08/28 10:54:09;;;;;;;5.07;2.23;;;20.40;1.00;;;;;;6133516;23;20556;-90
2023/08/28 10:56:36;;;;;;;5.87;2.40;;;20.50;1.00;;;;;;6157770;23;20157;-88
2023/08/28 10:59:22;;;;;;;3.33;2.10;;;20.60;1.00;;;;;;6134605;23;20168;-92
2023/08/28 11:02:06;;;;;;;3.57;2.13;;;20.70;1.00;;;;;;6138070;23;20244;-89
2023/08/28 11:04:36;;;;;;;10.13;2.50;;;20.90;1.00;;;;;;6137374;23;20271;-90
2023/08/28 11:07:07;;;;;;;4.23;2.57;;;21.10;1.00;;;;;;6134278;23;20161;-89
2023/08/28 11:09:34;;;;;;;8.00;2.80;;;21.20;1.00;;;;;;6135115;23;20185;-90
2023/08/28 11:12:02;;;;;;;4.77;2.50;;;21.20;1.00;;;;;;6135859;23;20272;-91
2023/08/28 11:14:38;;;;;;;4.80;2.70;;;21.20;1.00;;;;;;6161731;23;20169;-92
2023/08/28 11:17:15;;;;;;;5.00;2.57;;;21.30;1.00;;;;;;6162214;23;20156;-90
2023/08/28 11:19:55;;;;;;;4.30;2.27;;;21.50;1.00;;;;;;6136056;23;20157;-90
2023/08/28 11:22:31;;;;;;;3.60;2.30;;;21.50;1.00;;;;;;6161930;23;20204;-92
2023/08/28 11:24:57;;;;;;;5.67;2.50;;;21.40;1.00;;;;;;6161203;23;20188;-92
2023/08/28 11:27:44;;;;;;;3.23;2.70;;;21.40;1.00;;;;;;6134462;23;20478;-93
2023/08/28 11:30:11;;;;;;;5.27;2.47;;;21.60;1.00;;;;;;6134654;23;20245;-91
2023/08/28 11:32:39;;;;;;;3.17;2.10;;;21.70;1.00;;;;;;6133983;23;20158;-91
2023/08/28 11:35:09;;;;;;;2.83;2.17;;;21.60;1.00;;;;;;6134518;23;20185;-90
2023/08/28 11:37:40;;;;;;;2.83;1.80;;;21.50;1.00;;;;;;6136054;23;20158;-91
2023/08/28 11:40:08;;;;;;;2.67;2.07;;;21.40;1.00;;;;;;6136599;23;20288;-91
2023/08/28 11:42:35;;;;;;;3.70;2.47;;;21.50;1.00;;;;;;6135978;23;20169;-90
2023/08/28 11:45:00;;;;;;;3.93;2.70;;;21.50;1.00;;;;;;6135594;23;20210;-90
2023/08/28 11:47:27;;;;;;;5.23;2.50;;;21.60;1.00;;;;;;6162365;23;20175;-91
2023/08/28 11:49:54;;;;;;;3.90;2.77;;;21.70;1.00;;;;;;6135973;23;20161;-89
2023/08/28 11:52:21;;;;;;;4.57;2.17;;;21.80;1.00;;;;;;6161780;23;20177;-90
2023/08/28 11:54:47;;;;;;;4.03;1.87;;;21.80;1.00;;;;;;6135745;23;20177;-91
2023/08/28 11:57:18;;;;;;;4.17;2.10;;;21.80;1.00;;;;;;6136977;23;20157;-91
2023/08/28 11:59:45;;;;;;;5.33;3.47;;;21.80;1.00;;;;;;6135861;23;20154;-91
2023/08/28 12:02:13;;;;;;;4.20;2.23;;;21.80;1.00;;;;;;6135658;23;20162;-93
2023/08/28 12:04:43;;;;;;;2.63;1.80;;;21.80;1.00;;;;;;6136100;23;20255;-92
2023/08/28 12:07:23;;;;;;;4.17;1.93;;;21.80;1.00;;;;;;6136125;23;20169;-92
2023/08/28 12:09:49;;;;;;;5.77;2.10;;;21.70;1.00;;;;;;6137203;23;20166;-91
2023/08/28 12:12:16;;;;;;;2.27;1.87;;;21.70;1.00;;;;;;6137404;23;20561;-91
2023/08/28 12:14:46;;;;;;;3.30;1.93;;;21.90;1.00;;;;;;6135993;23;20184;-92
2023/08/28 12:17:21;;;;;;;3.63;2.10;;;22.10;1.00;;;;;;6135366;23;20157;-92
2023/08/28 12:19:51;;;;;;;3.40;1.90;;;22.20;1.00;;;;;;6135211;23;20154;-90
2023/08/28 12:22:20;;;;;;;2.97;1.70;;;22.40;1.00;;;;;;6135423;23;20181;-93
2023/08/28 12:24:48;;;;;;;2.87;1.90;;;22.50;1.00;;;;;;6134542;23;20186;-89
2023/08/28 12:27:16;;;;;;;3.23;2.00;;;22.80;1.00;;;;;;6135934;23;20179;-91
2023/08/28 12:29:42;;;;;;;3.30;2.00;;;22.90;1.00;;;;;;6134617;23;20474;-91
2023/08/28 12:32:09;;;;;;;2.53;1.90;;;23.10;1.00;;;;;;6135729;23;20196;-93
2023/08/28 12:34:37;;;;;;;2.33;1.63;;;23.20;1.00;;;;;;6136877;23;20558;-92
2023/08/28 12:37:07;;;;;;;3.03;1.30;;;23.30;1.00;;;;;;6135015;23;20172;-91
2023/08/28 12:39:34;;;;;;;3.43;1.50;;;23.20;1.00;;;;;;6135277;23;20150;-91
2023/08/28 12:42:01;;;;;;;1.20;0.90;;;23.00;1.00;;;;;;6135229;23;20190;-88
2023/08/28 12:44:31;;;;;;;2.23;1.53;;;23.00;1.00;;;;;;6134354;23;20239;-86
2023/08/28 12:46:57;;;;;;;2.77;1.30;;;23.00;1.00;;;;;;6111785;23;20181;-89
2023/08/28 12:49:24;;;;;;;5.30;1.50;;;23.10;1.00;;;;;;6160628;23;20230;-86
2023/08/28 12:51:50;;;;;;;2.37;1.33;;;23.20;1.00;;;;;;6134348;23;20189;-89
2023/08/28 12:54:19;;;;;;;2.33;1.50;;;23.50;1.00;;;;;;6159931;23;20199;-88
2023/08/28 12:56:48;;;;;;;4.80;2.00;;;23.70;1.00;;;;;;6160290;23;20150;-90